createdAt,value
2019-04-14T00:00:34.347Z,85.60
2019-04-14T00:03:21.599Z,86.50
2019-04-14T00:05:50.317Z,85.10
2019-04-14T00:08:17.746Z,84.80
2019-04-14T00:10:44.636Z,85.70
2019-04-14T00:13:11.386Z,85.90
2019-04-14T00:15:43.519Z,86.30
2019-04-14T00:18:07.443Z,86.20
2019-04-14T00:20:34.078Z,87.10
2019-04-14T00:23:00.527Z,85.70
2019-04-14T00:25:26.986Z,86.10
2019-04-14T00:27:54.364Z,85.10
2019-04-14T00:30:23.056Z,88.40
2019-04-14T00:32:52.982Z,89.10
2019-04-14T00:35:40.570Z,89.20
2019-04-14T00:38:15.179Z,88.10
2019-04-14T00:40:47.552Z,88.90
2019-04-14T00:43:31.254Z,89.40
2019-04-14T00:46:01.362Z,88.80
2019-04-14T00:48:29.897Z,88.80
2019-04-14T00:50:58.119Z,88.30
2019-04-14T00:53:25.375Z,89.00
2019-04-14T00:55:53.219Z,88.30
2019-04-14T00:58:19.858Z,89.60
2019-04-14T01:00:47.490Z,91.10
2019-04-14T01:03:14.067Z,91.00
2019-04-14T01:05:41.531Z,92.10
2019-04-14T01:08:08.090Z,92.80
2019-04-14T01:10:34.563Z,92.20
2019-04-14T01:13:01.217Z,90.80
2019-04-14T01:15:28.922Z,90.00
2019-04-14T01:17:55.429Z,89.60
2019-04-14T01:20:23.152Z,90.20
2019-04-14T01:22:50.895Z,90.30
2019-04-14T01:25:17.704Z,90.00
2019-04-14T01:27:45.041Z,89.40
2019-04-14T01:30:11.884Z,89.40
2019-04-14T01:32:39.424Z,91.10
2019-04-14T01:35:07.466Z,92.80
2019-04-14T01:37:35.480Z,92.30
2019-04-14T01:40:03.180Z,92.00
2019-04-14T01:42:30.965Z,92.00
2019-04-14T01:44:57.461Z,91.70
2019-04-14T01:47:24.885Z,92.90
2019-04-14T01:49:51.583Z,91.40
2019-04-14T01:52:25.723Z,91.20
2019-04-14T01:55:11.203Z,92.60
2019-04-14T01:57:39.674Z,92.50
2019-04-14T02:00:14.623Z,92.60
2019-04-14T02:02:42.153Z,93.80
2019-04-14T02:05:08.855Z,92.90
2019-04-14T02:07:36.164Z,91.50
2019-04-14T02:10:04.662Z,92.00
2019-04-14T02:12:32.290Z,92.20
2019-04-14T02:14:58.894Z,91.60
2019-04-14T02:17:26.363Z,93.20
2019-04-14T02:19:54.637Z,92.80
2019-04-14T02:22:22.308Z,93.00
2019-04-14T02:24:50.238Z,92.90
2019-04-14T02:27:16.872Z,92.10
2019-04-14T02:29:43.314Z,91.50
2019-04-14T02:32:42.499Z,91.10
2019-04-14T02:35:02.858Z,91.80
2019-04-14T02:37:38.658Z,90.90
2019-04-14T02:40:01.565Z,91.30
2019-04-14T02:44:59.866Z,91.60
2019-04-14T02:49:56.132Z,91.60
2019-04-14T02:52:28.194Z,91.50
2019-04-14T02:59:49.574Z,91.40
2019-04-14T03:04:51.964Z,91.60
2019-04-14T03:07:23.261Z,91.50
2019-04-14T03:09:50.238Z,92.10
2019-04-14T03:12:19.124Z,91.60
2019-04-14T03:22:34.626Z,92.00
2019-04-14T03:25:00.611Z,91.70
2019-04-14T03:30:32.932Z,91.90
2019-04-14T03:35:47.824Z,92.00
2019-04-14T03:37:45.241Z,92.30
2019-04-14T03:40:05.136Z,92.20
2019-04-14T03:45:11.164Z,92.40
2019-04-14T03:47:31.270Z,92.20
2019-04-14T03:50:00.925Z,92.40
2019-04-14T03:52:33.210Z,92.40
2019-04-14T03:54:50.080Z,92.70
2019-04-14T03:56:58.127Z,91.90
2019-04-14T03:59:25.960Z,92.50
2019-04-14T04:01:52.828Z,92.50
2019-04-14T04:04:20.456Z,92.50
2019-04-14T04:06:48.464Z,92.90
2019-04-14T04:09:15.302Z,92.70
2019-04-14T04:11:41.852Z,92.40
2019-04-14T04:14:09.536Z,92.70
2019-04-14T04:16:50.795Z,92.80
2019-04-14T04:19:29.512Z,93.00
2019-04-14T04:22:15.066Z,93.00
2019-04-14T04:24:50.025Z,93.40
2019-04-14T04:27:35.240Z,93.00
2019-04-14T04:30:03.799Z,93.10
2019-04-14T04:32:49.351Z,93.10
2019-04-14T04:35:17.952Z,93.00
2019-04-14T04:38:03.128Z,92.70
2019-04-14T04:40:31.396Z,92.90
2019-04-14T04:42:58.984Z,92.60
2019-04-14T04:45:25.719Z,92.60
2019-04-14T04:47:53.397Z,92.60
2019-04-14T04:50:19.964Z,92.80
2019-04-14T04:52:47.537Z,92.50
2019-04-14T04:55:14.086Z,92.70
2019-04-14T04:57:41.405Z,93.10
2019-04-14T05:00:09.246Z,93.20
2019-04-14T05:02:35.869Z,93.40
2019-04-14T05:05:05.581Z,93.50
2019-04-14T05:07:32.243Z,93.40
2019-04-14T05:10:10.898Z,93.10
2019-04-14T05:12:43.423Z,93.10
2019-04-14T05:15:24.777Z,93.10
2019-04-14T05:17:51.746Z,93.20
2019-04-14T05:20:18.401Z,93.20
2019-04-14T05:22:46.078Z,92.70
2019-04-14T05:25:12.600Z,93.00
2019-04-14T05:27:39.084Z,93.00
2019-04-14T05:30:06.816Z,93.00
2019-04-14T05:32:34.659Z,93.00
2019-04-14T05:35:01.488Z,93.00
2019-04-14T05:37:29.235Z,93.10
2019-04-14T05:39:56.879Z,93.00
2019-04-14T05:42:25.632Z,93.30
2019-04-14T05:44:51.667Z,93.00
2019-04-14T05:47:18.115Z,92.70
2019-04-14T05:49:48.260Z,92.90
2019-04-14T05:52:14.072Z,92.60
2019-04-14T05:54:40.700Z,92.50
2019-04-14T05:57:07.249Z,91.50
2019-04-14T05:59:33.708Z,91.80
2019-04-14T06:02:00.214Z,91.70
2019-04-14T06:04:26.677Z,91.70
2019-04-14T06:06:53.231Z,91.80
2019-04-14T06:09:19.674Z,91.90
2019-04-14T06:11:46.135Z,92.00
2019-04-14T06:14:12.597Z,92.20
2019-04-14T06:16:39.065Z,91.80
2019-04-14T06:19:05.544Z,91.50
2019-04-14T06:21:32.003Z,91.30
2019-04-14T06:23:58.450Z,91.40
2019-04-14T06:26:25.018Z,91.30
2019-04-14T06:28:51.450Z,91.10
2019-04-14T06:31:36.326Z,91.40
2019-04-14T06:34:04.794Z,90.60
2019-04-14T06:36:46.541Z,90.60
2019-04-14T06:39:18.007Z,90.50
2019-04-14T06:41:44.650Z,90.50
2019-04-14T06:44:11.217Z,90.80
2019-04-14T06:46:37.742Z,90.50
2019-04-14T06:49:04.341Z,90.70
2019-04-14T06:51:30.814Z,90.80
2019-04-14T06:53:57.288Z,90.30
2019-04-14T06:56:23.721Z,90.40
2019-04-14T06:58:50.181Z,90.00
2019-04-14T07:01:16.636Z,90.30
2019-04-14T07:03:43.287Z,90.70
2019-04-14T07:06:09.758Z,89.90
2019-04-14T07:08:36.228Z,90.40
2019-04-14T07:11:02.855Z,90.60
2019-04-14T07:13:29.303Z,90.40
2019-04-14T07:15:55.777Z,90.40
2019-04-14T07:18:22.250Z,90.10
2019-04-14T07:20:48.712Z,91.10
2019-04-14T07:23:15.169Z,91.30
2019-04-14T07:25:41.594Z,90.90
2019-04-14T07:28:08.057Z,90.90
2019-04-14T07:30:39.877Z,91.50
2019-04-14T07:33:12.295Z,91.00
2019-04-14T07:36:01.974Z,91.40
2019-04-14T07:38:39.586Z,91.10
2019-04-14T07:41:17.080Z,91.00
2019-04-14T07:43:57.702Z,90.20
2019-04-14T07:46:26.175Z,90.40
2019-04-14T07:49:12.824Z,90.80
2019-04-14T07:51:57.937Z,89.50
2019-04-14T07:54:35.530Z,89.00
2019-04-14T07:57:09.895Z,89.50
2019-04-14T07:59:50.599Z,88.90
2019-04-14T08:02:18.988Z,86.10
2019-04-14T08:04:50.319Z,87.10
2019-04-14T08:07:16.809Z,87.60
2019-04-14T08:09:43.265Z,88.20
2019-04-14T08:12:09.810Z,87.40
2019-04-14T08:14:36.351Z,86.00
2019-04-14T08:17:02.937Z,87.00
2019-04-14T08:19:29.370Z,86.60
2019-04-14T08:21:55.837Z,87.50
2019-04-14T08:24:22.308Z,87.00
2019-04-14T08:26:48.735Z,86.90
2019-04-14T08:29:16.503Z,85.70
2019-04-14T08:31:43.065Z,86.60
2019-04-14T08:34:09.511Z,86.80
2019-04-14T08:36:35.990Z,86.20
2019-04-14T08:39:04.893Z,85.60
2019-04-14T08:41:33.827Z,84.80
2019-04-14T08:44:10.955Z,84.80
2019-04-14T08:46:57.410Z,88.20
2019-04-14T08:49:25.865Z,87.30
2019-04-14T08:52:03.117Z,81.70
2019-04-14T08:54:32.687Z,81.80
2019-04-14T08:57:01.042Z,80.20
2019-04-14T08:59:38.389Z,81.00
2019-04-14T09:02:06.974Z,84.00
2019-04-14T09:04:51.657Z,82.40
2019-04-14T09:07:29.259Z,80.70
2019-04-14T09:10:00.713Z,80.20
2019-04-14T09:12:41.158Z,82.00
2019-04-14T09:15:08.133Z,82.10
2019-04-14T09:17:34.581Z,77.10
2019-04-14T09:20:01.262Z,80.60
2019-04-14T09:22:27.837Z,77.00
2019-04-14T09:24:54.294Z,79.90
2019-04-14T09:27:20.811Z,81.30
2019-04-14T09:29:47.358Z,79.00
2019-04-14T09:32:14.352Z,81.20
2019-04-14T09:34:40.941Z,80.30
2019-04-14T09:37:07.437Z,81.70
2019-04-14T09:39:33.865Z,79.70
2019-04-14T09:42:00.862Z,77.30
2019-04-14T09:44:27.334Z,76.00
2019-04-14T09:46:53.831Z,77.20
2019-04-14T09:49:20.462Z,76.40
2019-04-14T09:51:47.064Z,74.50
2019-04-14T09:54:13.506Z,73.90
2019-04-14T09:56:40.076Z,75.60
2019-04-14T09:59:06.543Z,75.90
2019-04-14T10:01:33.036Z,77.20
2019-04-14T10:03:59.648Z,75.00
2019-04-14T10:06:26.132Z,74.00
2019-04-14T10:08:52.626Z,73.40
2019-04-14T10:11:19.101Z,75.90
2019-04-14T10:13:45.612Z,73.70
2019-04-14T10:16:12.182Z,75.70
2019-04-14T10:18:38.781Z,74.70
2019-04-14T10:21:16.887Z,75.70
2019-04-14T10:23:33.560Z,75.90
2019-04-14T10:26:00.142Z,73.20
2019-04-14T10:28:26.676Z,73.50
2019-04-14T10:30:53.130Z,72.10
2019-04-14T10:33:19.635Z,72.40
2019-04-14T10:35:46.238Z,72.20
2019-04-14T10:38:12.734Z,73.90
2019-04-14T10:40:39.361Z,73.70
2019-04-14T10:43:06.113Z,72.90
2019-04-14T10:45:34.100Z,75.40
2019-04-14T10:48:00.667Z,75.70
2019-04-14T10:50:31.090Z,74.60
2019-04-14T10:52:55.543Z,73.60
2019-04-14T10:55:22.445Z,69.90
2019-04-14T10:57:49.248Z,70.50
2019-04-14T11:00:18.395Z,70.80
2019-04-14T11:02:44.994Z,72.40
2019-04-14T11:05:11.592Z,73.20
2019-04-14T11:07:38.273Z,71.60
2019-04-14T11:10:07.512Z,70.80
2019-04-14T11:12:34.307Z,70.60
2019-04-14T11:15:00.726Z,70.40
2019-04-14T11:17:27.261Z,70.10
2019-04-14T11:19:53.711Z,70.30
2019-04-14T11:22:20.196Z,72.60
2019-04-14T11:24:46.679Z,72.70
2019-04-14T11:27:13.159Z,70.60
2019-04-14T11:29:39.630Z,71.20
2019-04-14T11:32:26.100Z,70.50
2019-04-14T11:34:54.454Z,69.60
2019-04-14T11:37:39.884Z,72.90
2019-04-14T11:40:08.569Z,70.80
2019-04-14T11:42:35.149Z,69.70
2019-04-14T11:45:02.344Z,71.80
2019-04-14T11:47:29.107Z,72.60
2019-04-14T11:49:56.346Z,71.30
2019-04-14T11:52:23.052Z,70.70
2019-04-14T11:54:49.603Z,70.30
2019-04-14T11:57:18.392Z,74.50
2019-04-14T11:59:46.897Z,72.20
2019-04-14T12:02:15.517Z,71.10
2019-04-14T12:04:43.903Z,73.10
2019-04-14T12:07:12.528Z,71.30
2019-04-14T12:09:51.138Z,70.50
2019-04-14T12:12:17.609Z,71.30
2019-04-14T12:14:44.176Z,71.60
2019-04-14T12:17:10.763Z,73.60
2019-04-14T12:19:38.600Z,71.00
2019-04-14T12:22:08.636Z,70.60
2019-04-14T12:24:33.559Z,69.30
2019-04-14T12:27:00.163Z,70.40
2019-04-14T12:29:26.735Z,72.50
2019-04-14T12:31:55.225Z,74.30
2019-04-14T12:34:21.797Z,73.60
2019-04-14T12:36:48.293Z,69.40
2019-04-14T12:39:21.299Z,73.60
2019-04-14T12:41:55.471Z,72.80
2019-04-14T12:44:40.130Z,73.80
2019-04-14T12:47:14.768Z,72.40
2019-04-14T12:49:52.014Z,70.00
2019-04-14T12:52:29.264Z,70.20
2019-04-14T12:55:03.847Z,70.00
2019-04-14T12:57:52.333Z,70.90
2019-04-14T13:00:31.480Z,71.20
2019-04-14T13:03:10.219Z,69.70
2019-04-14T13:05:49.095Z,72.70
2019-04-14T13:08:31.599Z,75.10
2019-04-14T13:11:06.770Z,72.00
2019-04-14T13:13:42.911Z,72.00
2019-04-14T13:16:09.218Z,71.60
2019-04-14T13:18:36.809Z,74.10
2019-04-14T13:21:03.802Z,74.70
2019-04-14T13:23:30.332Z,76.10
2019-04-14T13:25:56.904Z,75.70
2019-04-14T13:28:23.360Z,75.00
2019-04-14T13:30:50.982Z,77.30
2019-04-14T13:33:17.710Z,77.30
2019-04-14T13:35:46.260Z,78.10
2019-04-14T13:38:12.747Z,76.80
2019-04-14T13:40:39.538Z,76.70
2019-04-14T13:43:06.329Z,79.20
2019-04-14T13:45:33.004Z,79.40
2019-04-14T13:47:59.665Z,80.10
2019-04-14T13:50:26.247Z,75.00
2019-04-14T13:52:52.886Z,75.40
2019-04-14T13:55:19.595Z,77.70
2019-04-14T13:57:46.521Z,75.90
2019-04-14T14:00:15.203Z,74.40
2019-04-14T14:02:42.188Z,75.70
2019-04-14T14:05:08.970Z,77.50
2019-04-14T14:07:35.549Z,80.50
2019-04-14T14:10:06.678Z,80.30
2019-04-14T14:12:53.394Z,75.30
2019-04-14T14:15:21.884Z,77.80
2019-04-14T14:18:02.110Z,76.40
2019-04-14T14:20:36.502Z,76.80
2019-04-14T14:23:04.939Z,79.10
2019-04-14T14:25:33.408Z,77.70
2019-04-14T14:28:00.008Z,78.80
2019-04-14T14:30:26.505Z,78.30
2019-04-14T14:32:52.986Z,78.20
2019-04-14T14:35:19.460Z,77.00
2019-04-14T14:37:46.129Z,76.10
2019-04-14T14:40:12.734Z,78.00
2019-04-14T14:42:39.340Z,76.40
2019-04-14T14:45:14.494Z,78.10
2019-04-14T14:47:42.887Z,75.30
2019-04-14T14:50:14.376Z,77.50
2019-04-14T14:52:41.185Z,74.80
2019-04-14T14:55:08.181Z,76.10
2019-04-14T14:57:34.662Z,71.90
2019-04-14T15:00:01.384Z,71.10
2019-04-14T15:02:27.934Z,72.30
2019-04-14T15:04:54.542Z,74.70
2019-04-14T15:07:21.059Z,72.70
2019-04-14T15:09:47.649Z,74.20
2019-04-14T15:12:14.384Z,73.90
2019-04-14T15:14:41.373Z,70.60
2019-04-14T15:17:08.442Z,71.60
2019-04-14T15:19:36.187Z,73.10
2019-04-14T15:22:03.516Z,74.50
2019-04-14T15:24:31.226Z,74.60
2019-04-14T15:26:57.937Z,76.20
2019-04-14T15:29:24.440Z,74.90
2019-04-14T15:31:51.059Z,76.60
2019-04-14T15:34:17.554Z,77.90
2019-04-14T15:36:44.198Z,74.40
2019-04-14T15:39:11.370Z,74.30
2019-04-14T15:41:37.969Z,75.70
2019-04-14T15:44:04.607Z,76.60
2019-04-14T15:46:31.218Z,74.70
2019-04-14T15:48:57.926Z,71.40
2019-04-14T15:51:24.500Z,73.10
2019-04-14T15:53:51.166Z,70.80
2019-04-14T15:56:22.531Z,69.50
2019-04-14T15:58:54.045Z,70.60
2019-04-14T16:01:25.504Z,68.70
2019-04-14T16:03:59.897Z,66.90
2019-04-14T16:06:28.312Z,67.80
2019-04-14T16:09:02.729Z,64.50
2019-04-14T16:11:33.015Z,63.50
2019-04-14T16:14:10.476Z,63.60
2019-04-14T16:16:39.784Z,65.80
2019-04-14T16:19:19.707Z,68.50
2019-04-14T16:21:46.197Z,68.60
2019-04-14T16:24:12.885Z,69.70
2019-04-14T16:26:47.270Z,70.50
2019-04-14T16:29:19.963Z,71.80
2019-04-14T16:32:08.691Z,70.90
2019-04-14T16:34:40.139Z,73.20
2019-04-14T16:37:06.757Z,72.70
2019-04-14T16:39:33.578Z,74.00
2019-04-14T16:42:00.210Z,73.60
2019-04-14T16:44:26.869Z,73.90
2019-04-14T16:46:53.698Z,74.60
2019-04-14T16:49:20.417Z,75.70
2019-04-14T16:51:51.712Z,75.20
2019-04-14T16:54:37.121Z,76.00
2019-04-14T16:57:11.383Z,77.30
2019-04-14T16:59:37.895Z,76.30
2019-04-14T17:02:10.819Z,77.50
2019-04-14T17:04:33.190Z,77.30
2019-04-14T17:07:07.829Z,78.80
2019-04-14T17:09:36.175Z,79.50
2019-04-14T17:12:02.901Z,78.90
2019-04-14T17:20:43.306Z,79.00
2019-04-14T17:23:20.916Z,78.90
2019-04-14T20:09:49.035Z,92.00
2019-04-14T20:12:16.434Z,91.70
2019-04-14T20:14:43.621Z,91.50
2019-04-14T20:17:28.234Z,92.70
2019-04-14T20:19:58.794Z,92.20
2019-04-14T20:22:36.361Z,91.80
2019-04-14T20:25:15.279Z,91.90
2019-04-14T20:27:46.220Z,92.40
2019-04-14T20:30:14.917Z,92.20
2019-04-14T20:32:50.167Z,92.00
